Time;durP1;ratioP1;P1;durP2;ratioP2;P2;SDS_P1;SDS_P2;PMS_P1;PMS_P2;Temp;Humidity;BMP_temperature;BMP_pressure;BME280_temperature;BME280_humidity;BME280_pressure;Samples;Min_cycle;Max_cycle;Signal;HPM_P1;HPM_P2
2022/07/06 00:00:24;;;;;;;3.97;1.50;;;18.70;79.40;;;15.37;72.64;101430.63;5011925;28;20461;-82
2022/07/06 00:02:51;;;;;;;5.57;1.60;;;18.60;79.30;;;15.43;72.00;101435.34;5021111;28;20409;-83
2022/07/06 00:05:18;;;;;;;4.30;1.50;;;18.60;79.00;;;15.36;71.82;101434.41;5029478;28;20055;-83
2022/07/06 00:07:47;;;;;;;4.45;1.40;;;18.60;79.10;;;15.28;71.82;101420.81;5021184;28;20060;-83
2022/07/06 00:10:14;;;;;;;6.65;2.10;;;18.60;78.90;;;15.28;71.86;101418.91;5012192;28;20040;-83
2022/07/06 00:12:41;;;;;;;3.42;1.50;;;18.60;78.80;;;15.23;71.90;101415.91;5017660;28;20038;-82
2022/07/06 00:15:09;;;;;;;5.95;1.95;;;18.60;78.80;;;15.13;72.48;101424.44;5009667;28;20490;-82
2022/07/06 00:17:36;;;;;;;4.32;1.70;;;18.60;79.20;;;15.05;72.83;101430.88;5009659;28;20042;-83
2022/07/06 00:20:04;;;;;;;4.95;1.40;;;18.50;79.30;;;15.08;72.68;101432.41;5009141;28;20050;-82
2022/07/06 00:22:32;;;;;;;4.03;1.60;;;18.50;79.50;;;15.08;72.63;101432.41;5018509;28;20495;-82
2022/07/06 00:25:00;;;;;;;4.80;1.50;;;18.40;79.20;;;15.01;73.76;101428.72;5009157;28;20054;-82
2022/07/06 00:27:29;;;;;;;3.92;1.90;;;18.40;79.80;;;14.93;74.13;101426.94;4996575;28;20046;-82
2022/07/06 00:29:56;;;;;;;4.97;1.67;;;18.40;80.20;;;14.93;74.16;101423.34;4995095;28;20185;-82
2022/07/06 00:32:25;;;;;;;5.45;1.80;;;18.40;80.10;;;14.87;74.65;101424.97;5003070;28;20048;-83
2022/07/06 00:34:52;;;;;;;5.30;1.70;;;18.40;80.30;;;14.80;74.72;101424.88;5004280;28;20045;-82
2022/07/06 00:37:19;;;;;;;6.93;1.90;;;18.30;80.50;;;14.74;75.11;101416.56;5012471;28;20131;-82
2022/07/06 00:39:46;;;;;;;4.85;1.60;;;18.30;80.60;;;14.67;76.13;101421.94;5011786;28;20422;-82
2022/07/06 00:42:15;;;;;;;5.15;2.10;;;18.20;80.90;;;14.59;77.29;101428.38;5006004;28;20049;-82
2022/07/06 00:44:42;;;;;;;6.63;1.98;;;18.20;81.70;;;14.56;77.40;101427.88;5010313;28;20050;-82
2022/07/06 00:47:10;;;;;;;4.80;1.90;;;18.20;81.70;;;14.56;77.38;101427.88;4995040;28;20077;-82
2022/07/06 00:52:22;;;;;;;3.90;1.90;;;18.10;82.30;;;14.48;78.41;101432.38;5031115;28;20398;-82
2022/07/06 00:54:50;;;;;;;3.88;1.70;;;18.00;82.40;;;14.52;79.00;101432.03;5019748;28;20042;-82
2022/07/06 00:57:19;;;;;;;7.00;1.98;;;18.10;82.90;;;14.44;79.72;101431.06;5012821;28;20069;-82
2022/07/06 00:59:46;;;;;;;7.85;2.05;;;18.00;83.40;;;14.44;79.88;101428.31;5001100;28;20037;-82
2022/07/06 01:02:13;;;;;;;7.68;2.38;;;18.00;83.40;;;14.52;79.58;101427.38;5003010;28;20137;-82
2022/07/06 01:04:41;;;;;;;6.63;2.20;;;18.00;83.50;;;14.50;79.94;101434.09;4995336;28;20049;-82
2022/07/06 01:07:08;;;;;;;6.28;2.00;;;18.00;83.70;;;14.49;80.13;101436.00;4995208;28;20045;-82
2022/07/06 01:09:35;;;;;;;5.63;2.20;;;17.90;84.10;;;14.50;80.27;101434.09;5000760;28;20391;-82
2022/07/06 01:12:04;;;;;;;6.57;2.05;;;17.90;84.10;;;14.50;79.79;101439.56;5013740;28;20057;-82
2022/07/06 01:14:33;;;;;;;6.90;2.03;;;17.90;83.90;;;14.60;80.28;101437.44;4994385;28;20057;-83
2022/07/06 01:17:01;;;;;;;4.50;2.05;;;17.90;84.20;;;14.55;80.38;101435.25;4994979;28;20424;-82
2022/07/06 01:19:28;;;;;;;4.68;2.20;;;17.90;84.30;;;14.53;80.93;101437.31;5015302;28;20044;-82
2022/07/06 01:21:56;;;;;;;4.70;2.00;;;18.00;84.60;;;14.57;80.58;101435.09;5008957;28;20152;-83
2022/07/06 01:24:24;;;;;;;6.15;2.05;;;17.90;84.40;;;14.58;80.45;101431.28;5012011;28;20041;-82
2022/07/06 01:26:51;;;;;;;5.40;1.90;;;17.80;84.60;;;14.57;80.29;101424.13;4994215;28;20041;-82
2022/07/06 01:29:18;;;;;;;6.93;2.05;;;17.90;84.60;;;14.47;80.41;101424.38;5017362;28;20505;-82
2022/07/06 01:31:49;;;;;;;4.88;1.77;;;17.80;84.40;;;14.46;80.61;101429.00;5000579;28;20053;-82
2022/07/06 01:34:18;;;;;;;8.30;1.90;;;17.80;84.40;;;14.45;80.96;101432.78;5020199;28;20046;-82
2022/07/06 01:36:46;;;;;;;5.18;1.85;;;17.80;84.60;;;14.37;80.69;101424.63;4994255;28;20070;-83
2022/07/06 01:39:15;;;;;;;4.40;1.65;;;17.70;84.50;;;14.32;81.00;101427.09;4996794;28;20116;-82
2022/07/06 01:41:42;;;;;;;5.00;1.90;;;17.90;84.60;;;14.34;80.79;101425.03;4998656;28;20141;-82
2022/07/06 01:44:10;;;;;;;5.47;1.75;;;17.70;84.40;;;14.30;81.06;101429.19;5011469;28;20048;-82
2022/07/06 01:46:38;;;;;;;8.25;1.60;;;17.70;84.50;;;14.26;81.41;101425.13;4994182;28;20522;-82
2022/07/06 01:49:07;;;;;;;5.82;1.92;;;17.70;84.70;;;14.19;81.17;101416.78;5000502;28;20623;-82
2022/07/06 01:51:35;;;;;;;5.85;1.80;;;17.70;84.70;;;14.11;81.97;101416.88;5024224;28;20433;-83
2022/07/06 01:54:02;;;;;;;4.85;1.70;;;17.60;85.00;;;14.10;82.11;101419.78;4996415;28;20049;-82
2022/07/06 01:56:32;;;;;;;3.72;1.50;;;17.60;85.10;;;14.06;82.36;101411.94;5011524;28;20541;-83
2022/07/06 01:59:02;;;;;;;5.78;1.90;;;17.60;85.30;;;13.98;83.14;101408.44;4996351;28;20076;-83
2022/07/06 02:01:30;;;;;;;6.10;2.08;;;17.60;85.50;;;13.97;82.77;101410.31;4999634;28;20073;-82
2022/07/06 02:03:57;;;;;;;5.30;1.60;;;17.50;85.40;;;13.94;82.94;101416.16;5011402;28;20049;-82
2022/07/06 02:06:24;;;;;;;7.55;2.10;;;17.50;85.60;;;13.96;82.57;101416.84;4993532;28;20592;-82
2022/07/06 02:08:53;;;;;;;9.18;1.60;;;17.50;85.40;;;13.94;82.83;101418.91;5018409;28;20115;-82
2022/07/06 02:11:21;;;;;;;6.13;1.83;;;17.40;85.20;;;13.88;83.37;101419.66;4999009;28;20045;-82
2022/07/06 02:13:50;;;;;;;4.93;1.67;;;17.50;85.60;;;13.83;82.97;101422.06;4993697;28;20077;-82
2022/07/06 02:16:17;;;;;;;4.88;1.60;;;17.40;85.50;;;13.81;83.74;101418.69;4992924;28;20175;-82
2022/07/06 02:18:45;;;;;;;5.47;1.88;;;17.40;85.50;;;13.78;83.63;101424.50;4991730;28;20046;-83
2022/07/06 02:21:12;;;;;;;5.97;1.65;;;17.40;85.60;;;13.78;83.57;101413.56;5006863;28;20085;-82
2022/07/06 02:23:40;;;;;;;4.50;1.60;;;17.40;85.60;;;13.72;84.48;101425.25;5009767;28;20507;-82
2022/07/06 02:26:08;;;;;;;7.32;1.50;;;17.30;86.00;;;13.71;84.15;101418.94;4990355;28;20044;-82
2022/07/06 02:28:36;;;;;;;8.98;1.80;;;17.30;86.10;;;13.64;84.96;101418.78;4984569;28;20131;-82
2022/07/06 02:31:05;;;;;;;6.72;1.88;;;17.30;86.30;;;13.61;84.73;101419.19;5002647;28;20050;-82
2022/07/06 02:33:32;;;;;;;5.53;1.50;;;17.20;86.20;;;13.64;85.02;101418.78;5030812;28;20502;-82
2022/07/06 02:36:00;;;;;;;4.50;1.63;;;17.20;86.20;;;13.57;84.97;101415.09;5019679;28;20050;-82
2022/07/06 02:38:27;;;;;;;5.18;1.85;;;17.20;86.40;;;13.54;85.14;101415.47;5010114;28;20071;-82
2022/07/06 02:40:54;;;;;;;7.00;1.75;;;17.10;86.50;;;13.49;85.79;101409.69;5000759;28;20422;-82
2022/07/06 02:43:22;;;;;;;5.78;1.80;;;17.10;86.70;;;13.51;85.76;101407.63;4993210;28;20084;-82
2022/07/06 02:45:50;;;;;;;9.05;2.10;;;17.10;86.80;;;13.48;85.70;101410.72;4992661;28;20461;-82
2022/07/06 02:48:21;;;;;;;3.25;1.65;;;17.10;86.80;;;13.45;85.86;101408.34;5007831;28;20050;-82
2022/07/06 02:50:49;;;;;;;;;;;17.10;86.90;;;13.39;86.68;101414.56;5001512;28;20050;-82
2022/07/06 02:53:18;;;;;;;9.00;1.90;;;17.10;87.00;;;13.37;86.69;101417.47;4976596;28;19971;-82
2022/07/06 02:55:46;;;;;;;6.35;2.25;;;17.00;87.40;;;13.31;87.16;101420.91;4993339;28;20054;-82
2022/07/06 02:58:13;;;;;;;5.65;1.70;;;17.00;87.50;;;13.27;87.11;101428.59;5010056;28;20045;-82
2022/07/06 03:00:40;;;;;;;6.18;1.70;;;17.00;87.50;;;13.19;88.16;101423.16;5000445;28;20117;-82
2022/07/06 03:03:09;;;;;;;4.40;1.80;;;16.90;87.70;;;13.14;88.09;101419.28;5010791;28;20053;-82
2022/07/06 03:05:37;;;;;;;6.47;2.10;;;16.90;87.90;;;13.11;88.16;101420.47;5010604;28;20052;-82
2022/07/06 03:08:05;;;;;;;5.72;1.90;;;16.90;87.90;;;13.07;88.72;101430.06;5006455;28;20042;-82
2022/07/06 03:10:33;;;;;;;7.45;1.88;;;16.90;88.10;;;13.07;89.05;101421.88;5026291;28;20042;-83
2022/07/06 03:13:01;;;;;;;4.72;2.10;;;16.80;88.00;;;12.99;89.08;101425.50;4995454;28;20140;-82
2022/07/06 03:15:28;;;;;;;7.15;2.35;;;16.80;88.00;;;13.00;89.32;101431.81;4992423;28;20521;-82
2022/07/06 03:17:55;;;;;;;7.95;2.35;;;16.80;88.60;;;13.03;90.11;101431.47;4992717;28;20046;-82
2022/07/06 03:20:22;;;;;;;4.53;1.95;;;16.70;88.80;;;13.05;90.65;101438.44;4999886;28;20065;-82
2022/07/06 03:22:51;;;;;;;8.15;2.60;;;16.70;89.30;;;13.07;90.61;101443.72;4993179;28;20053;-82
2022/07/06 03:25:18;;;;;;;6.45;2.38;;;16.70;89.70;;;13.15;91.35;101437.38;5010443;28;20042;-82
2022/07/06 03:27:46;;;;;;;7.68;2.28;;;16.70;89.90;;;13.21;90.59;101440.25;4994008;28;20065;-82
2022/07/06 03:30:16;;;;;;;6.30;2.53;;;16.70;90.10;;;13.29;90.85;101442.94;4990959;28;20044;-82
2022/07/06 03:32:49;;;;;;;10.88;2.92;;;16.70;90.30;;;13.28;90.78;101441.22;5012587;28;20049;-82
2022/07/06 03:35:17;;;;;;;9.77;3.10;;;16.70;90.20;;;13.30;90.75;101433.72;5010418;28;20443;-82
2022/07/06 03:37:45;;;;;;;10.50;3.38;;;16.80;90.20;;;13.29;90.96;101437.47;4992181;28;20092;-82
2022/07/06 03:40:14;;;;;;;10.15;3.53;;;16.80;90.20;;;13.33;90.84;101438.00;4999614;28;20034;-82
2022/07/06 03:42:42;;;;;;;13.23;3.90;;;16.80;90.30;;;13.38;91.02;101434.72;4995659;28;20145;-82
2022/07/06 03:45:11;;;;;;;9.70;3.90;;;16.80;90.30;;;13.33;91.48;101438.00;5008882;28;20045;-82
2022/07/06 03:47:40;;;;;;;11.27;4.10;;;16.80;90.30;;;13.33;91.31;101432.53;4992080;28;20053;-82
2022/07/06 03:50:09;;;;;;;9.95;4.05;;;16.80;90.30;;;13.32;91.31;101432.69;4999422;28;20042;-82
2022/07/06 03:52:39;;;;;;;12.55;4.65;;;16.80;90.40;;;13.29;91.56;101432.00;5006353;28;20046;-82
2022/07/06 03:55:10;;;;;;;13.68;4.70;;;16.70;90.30;;;13.35;91.32;101429.63;5039466;22;20388;-80
2022/07/06 03:57:40;;;;;;;14.88;4.57;;;16.70;90.50;;;13.39;91.26;101425.50;5051312;28;20095;-80
2022/07/06 04:00:11;;;;;;;14.57;5.03;;;16.70;90.70;;;13.38;91.51;101424.63;5062041;28;20516;-80
2022/07/06 04:02:46;;;;;;;12.10;4.45;;;16.70;90.90;;;13.44;92.27;101428.50;5063392;28;20683;-80
2022/07/06 04:05:21;;;;;;;12.93;4.60;;;16.70;91.20;;;13.48;92.21;101432.59;5062502;28;20516;-80
2022/07/06 04:07:48;;;;;;;13.50;4.68;;;16.80;91.40;;;13.58;91.66;101435.94;5081802;28;20051;-80
2022/07/06 04:10:16;;;;;;;12.38;4.47;;;16.70;91.30;;;13.65;91.66;101436.06;5050135;28;20033;-80
2022/07/06 04:12:46;;;;;;;12.23;4.68;;;16.70;91.50;;;13.67;91.60;101434.84;5053503;28;20405;-80
2022/07/06 04:15:15;;;;;;;10.13;4.65;;;16.80;91.60;;;13.71;91.91;101427.13;5051810;28;20132;-80
2022/07/06 04:17:55;;;;;;;11.85;4.10;;;16.80;91.80;;;13.74;91.82;101439.59;5053321;28;20045;-80
2022/07/06 04:20:27;;;;;;;10.68;4.22;;;16.80;91.80;;;13.82;92.33;101439.50;5067121;28;20850;-80
2022/07/06 04:22:56;;;;;;;14.05;4.85;;;16.90;92.10;;;13.88;92.22;101436.06;5051781;28;20160;-80
2022/07/06 04:25:25;;;;;;;13.52;4.60;;;16.90;92.30;;;13.97;91.68;101440.41;5057947;28;20040;-80
2022/07/06 04:27:55;;;;;;;13.60;4.78;;;16.90;92.30;;;14.02;91.37;101443.47;5045211;28;20045;-80
2022/07/06 04:30:23;;;;;;;11.60;4.53;;;16.90;92.00;;;14.03;91.69;101445.19;5050587;28;20045;-80
2022/07/06 04:32:50;;;;;;;11.68;4.55;;;16.90;92.70;;;14.11;91.30;101446.09;5051423;28;20052;-80
2022/07/06 04:35:19;;;;;;;9.75;4.18;;;16.90;92.40;;;14.17;91.58;101445.41;5046653;28;20052;-80
2022/07/06 04:37:48;;;;;;;12.73;4.93;;;17.00;92.50;;;14.21;90.96;101441.25;5051381;28;20059;-80
2022/07/06 04:40:18;;;;;;;13.10;4.25;;;17.00;92.50;;;14.34;90.00;101449.66;5050665;28;20064;-80
2022/07/06 04:42:45;;;;;;;11.13;4.55;;;17.00;92.30;;;14.45;90.00;101442.91;5051184;28;20053;-80
2022/07/06 04:45:14;;;;;;;12.90;4.05;;;17.10;92.30;;;14.52;90.19;101442.97;5052549;28;20045;-80
2022/07/06 04:47:43;;;;;;;11.82;4.43;;;17.10;92.40;;;14.55;89.45;101442.63;5051249;28;20063;-80
2022/07/06 04:50:12;;;;;;;9.75;4.45;;;17.10;91.90;;;14.67;88.69;101441.13;5058994;28;20051;-80
2022/07/06 04:52:40;;;;;;;10.30;4.32;;;17.20;91.80;;;14.85;88.16;101433.38;5055915;28;20413;-80
2022/07/06 04:55:08;;;;;;;12.00;4.03;;;17.20;91.90;;;15.01;87.17;101431.47;5049701;28;20053;-80
2022/07/06 04:57:36;;;;;;;12.98;4.10;;;17.20;91.70;;;15.10;86.99;101429.44;5067789;28;20048;-80
2022/07/06 05:00:06;;;;;;;7.47;4.25;;;17.30;91.80;;;15.38;86.32;101426.84;5051624;28;20045;-80
2022/07/06 05:02:35;;;;;;;9.70;4.40;;;17.40;91.90;;;15.70;84.11;101425.47;5051005;28;20139;-80
2022/07/06 05:05:05;;;;;;;11.73;4.57;;;17.50;91.80;;;15.91;83.61;101421.91;5053426;28;20041;-80
2022/07/06 05:07:33;;;;;;;13.00;4.30;;;17.60;90.80;;;16.03;82.62;101425.81;5050501;28;20436;-80
2022/07/06 05:10:01;;;;;;;11.73;4.47;;;17.70;90.80;;;16.15;82.67;101428.88;5050364;28;20041;-85
2022/07/06 05:12:31;;;;;;;9.43;3.95;;;17.80;90.80;;;16.13;81.53;101427.38;5052060;28;20079;-90
2022/07/06 05:14:59;;;;;;;12.00;4.30;;;18.10;90.10;;;16.26;81.49;101427.50;5048191;28;20160;-86
2022/07/06 05:17:27;;;;;;;12.98;4.38;;;18.00;90.40;;;16.37;81.03;101426.94;5066479;28;20604;-86
2022/07/06 05:19:56;;;;;;;12.80;3.80;;;18.10;89.80;;;16.45;80.01;101427.81;5046739;28;20438;-86
2022/07/06 05:22:24;;;;;;;11.48;4.07;;;18.20;89.60;;;16.20;79.62;101431.00;5031121;28;20088;-86
2022/07/06 05:24:51;;;;;;;11.38;4.53;;;18.20;88.70;;;16.19;80.05;101434.81;5064060;28;20080;-87
2022/07/06 05:27:19;;;;;;;9.35;3.55;;;18.20;88.60;;;16.20;80.55;101433.75;5038450;28;20041;-88
2022/07/06 05:29:47;;;;;;;8.55;3.72;;;18.20;88.80;;;16.29;81.23;101439.97;5046755;28;20413;-89
2022/07/06 05:32:16;;;;;;;10.98;3.60;;;18.30;89.40;;;16.35;81.15;101433.66;5064564;28;20532;-88
2022/07/06 05:34:43;;;;;;;10.70;3.90;;;18.30;89.60;;;16.47;79.94;101433.94;5030396;28;20057;-87
2022/07/06 05:37:16;;;;;;;12.38;3.22;;;18.30;89.00;;;16.53;79.47;101434.00;5030284;28;20136;-87
2022/07/06 05:39:45;;;;;;;13.45;3.80;;;18.40;88.90;;;16.66;79.78;101443.38;5046675;28;20048;-87
2022/07/06 05:42:13;;;;;;;9.88;3.40;;;18.40;89.10;;;16.74;79.57;101441.31;5050147;28;20128;-87
2022/07/06 05:44:42;;;;;;;9.68;3.70;;;18.40;89.10;;;17.04;78.39;101442.97;5049738;28;20045;-88
2022/07/06 05:50:12;;;;;;;11.50;3.78;;;18.60;89.10;;;17.53;76.17;101445.47;5036889;28;20041;-87
2022/07/06 05:52:55;;;;;;;11.43;3.20;;;18.60;88.70;;;17.64;74.50;101449.53;5052420;28;20517;-87
2022/07/06 05:55:23;;;;;;;5.72;2.97;;;18.60;87.80;;;17.69;74.66;101451.66;5048942;28;20144;-89
2022/07/06 05:57:53;;;;;;;7.22;3.08;;;18.70;88.00;;;17.57;73.53;101455.03;5049444;28;20095;-86
2022/07/06 06:00:21;;;;;;;9.85;3.00;;;18.80;87.70;;;17.34;76.72;101449.00;5046690;28;20053;-89
2022/07/06 06:02:54;;;;;;;9.07;3.00;;;18.80;88.30;;;17.42;75.32;101457.09;5047083;28;20038;-89
2022/07/06 06:05:22;;;;;;;9.02;2.97;;;18.90;87.60;;;17.58;74.93;101462.22;5054669;28;20074;-87
2022/07/06 06:07:54;;;;;;;13.60;2.70;;;19.00;87.50;;;17.61;74.96;101463.72;5047034;28;20048;-89
2022/07/06 06:10:25;;;;;;;16.25;3.28;;;19.00;87.20;;;17.59;75.87;101463.94;5040466;28;20041;-89
2022/07/06 06:12:55;;;;;;;9.18;2.00;;;19.10;88.20;;;17.30;74.81;101459.59;5061298;28;20037;-89
2022/07/06 06:15:22;;;;;;;8.52;2.20;;;19.00;86.40;;;17.25;74.92;101466.75;5048483;28;20768;-88
2022/07/06 06:17:50;;;;;;;6.50;1.73;;;19.00;86.40;;;17.24;74.84;101460.41;5047686;28;20820;-87
2022/07/06 06:20:17;;;;;;;5.03;1.60;;;19.00;86.60;;;17.07;75.91;101462.66;5045210;28;20044;-87
2022/07/06 06:22:53;;;;;;;5.68;1.73;;;19.00;86.60;;;16.99;76.24;101468.34;5046474;28;20143;-86
2022/07/06 06:25:28;;;;;;;5.07;1.45;;;19.00;86.80;;;17.05;75.23;101461.19;5030912;28;20081;-85
2022/07/06 06:27:55;;;;;;;12.13;1.60;;;19.00;86.20;;;17.10;75.58;101465.03;5035235;28;20041;-85
2022/07/06 06:30:23;;;;;;;6.78;1.48;;;19.00;86.50;;;17.38;75.88;101472.31;5047243;28;20471;-84
2022/07/06 06:32:50;;;;;;;5.03;1.50;;;19.00;86.80;;;17.59;76.88;101466.69;5047514;28;20048;-84
2022/07/06 06:35:17;;;;;;;9.57;2.17;;;19.00;88.10;;;17.76;73.70;101469.03;5030362;28;20116;-84
2022/07/06 06:37:45;;;;;;;4.85;1.20;;;19.10;86.90;;;17.73;73.94;101475.81;5038985;28;20128;-84
2022/07/06 06:40:12;;;;;;;10.43;1.77;;;19.10;86.80;;;17.76;74.38;101463.53;5043471;28;20045;-84
2022/07/06 06:42:41;;;;;;;7.82;1.60;;;19.10;87.20;;;17.67;73.78;101470.28;5050480;28;20119;-84
2022/07/06 06:45:12;;;;;;;4.72;1.50;;;19.10;86.70;;;17.66;74.67;101468.59;5048094;28;20041;-84
2022/07/06 06:47:39;;;;;;;6.38;1.58;;;19.20;86.80;;;17.61;74.64;101471.13;5045997;28;20127;-85
2022/07/06 06:50:08;;;;;;;6.15;1.50;;;19.20;87.20;;;17.63;74.12;101469.00;5053733;28;20054;-83
2022/07/06 06:52:35;;;;;;;5.20;1.42;;;19.20;86.80;;;17.73;74.99;101473.06;5049437;28;20148;-83
2022/07/06 06:55:02;;;;;;;6.35;1.60;;;19.20;86.70;;;17.73;74.03;101477.72;5047872;28;20056;-83
2022/07/06 06:57:30;;;;;;;5.40;1.30;;;19.20;86.90;;;17.78;74.82;101477.91;5050235;28;20053;-83
2022/07/06 06:59:58;;;;;;;7.60;1.60;;;19.30;87.30;;;17.92;73.44;101473.34;5039740;28;20117;-83
2022/07/06 07:02:25;;;;;;;4.47;1.48;;;19.30;87.20;;;17.94;72.83;101480.31;5049353;28;20040;-83
2022/07/06 07:04:52;;;;;;;6.68;1.73;;;19.30;86.60;;;17.87;71.94;101476.72;5049324;28;20493;-83
2022/07/06 07:07:20;;;;;;;3.58;1.30;;;19.30;85.30;;;17.89;72.53;101477.34;5051368;28;20120;-83
2022/07/06 07:09:47;;;;;;;7.82;1.30;;;19.40;85.70;;;17.98;72.75;101478.84;5049251;28;20045;-82
2022/07/06 07:12:16;;;;;;;6.03;1.63;;;19.40;85.80;;;18.13;72.64;101481.41;5040978;28;20048;-82
2022/07/06 07:14:44;;;;;;;5.97;1.17;;;19.40;86.00;;;18.21;70.21;101483.09;5041696;28;20087;-83
2022/07/06 07:17:13;;;;;;;6.78;1.38;;;19.40;84.60;;;18.18;69.51;101489.03;5047501;28;20053;-84
2022/07/06 07:19:41;;;;;;;6.85;1.58;;;19.40;84.20;;;18.17;69.62;101487.34;5044421;28;20417;-83
2022/07/06 07:22:08;;;;;;;10.85;1.50;;;19.50;83.90;;;18.16;70.20;101488.38;5041358;28;20056;-83
2022/07/06 07:24:36;;;;;;;8.43;1.52;;;19.50;84.40;;;18.21;70.02;101488.63;5051790;28;20123;-83
2022/07/06 07:27:05;;;;;;;6.68;1.75;;;19.60;84.50;;;18.33;70.00;101497.97;5039547;28;20117;-83
2022/07/06 07:29:32;;;;;;;7.90;1.77;;;19.60;84.50;;;18.43;68.64;101491.16;5036117;28;20034;-83
2022/07/06 07:31:59;;;;;;;9.60;1.52;;;19.60;83.60;;;18.42;67.95;101493.06;5041313;28;20116;-83
2022/07/06 07:34:27;;;;;;;8.02;1.30;;;19.60;83.60;;;18.32;66.53;101490.72;5041169;28;20123;-83
2022/07/06 07:36:55;;;;;;;4.82;1.40;;;19.60;82.40;;;18.16;68.65;101496.66;5047476;28;20047;-83
2022/07/06 07:39:22;;;;;;;6.30;1.30;;;19.70;83.00;;;18.15;69.69;101494.97;5042073;28;20077;-83
2022/07/06 07:41:50;;;;;;;4.82;1.10;;;19.60;83.40;;;18.22;68.21;101487.56;5046902;28;20500;-83
2022/07/06 07:44:17;;;;;;;3.88;1.00;;;19.70;83.00;;;18.39;68.13;101489.88;5041587;28;20586;-83
2022/07/06 07:46:45;;;;;;;5.30;1.30;;;19.70;83.00;;;18.59;66.88;101490.72;5043368;28;20425;-83
2022/07/06 07:49:12;;;;;;;8.55;1.27;;;19.70;82.70;;;18.52;67.28;101489.88;5042024;28;20147;-83
2022/07/06 07:51:42;;;;;;;5.10;1.30;;;19.70;82.70;;;18.44;65.93;101495.59;5055734;28;20049;-83
2022/07/06 07:54:09;;;;;;;5.72;1.23;;;19.70;81.80;;;18.35;66.28;101498.59;5042354;28;20060;-83
2022/07/06 07:56:36;;;;;;;4.80;1.20;;;19.70;81.10;;;18.46;66.13;101502.59;5039279;28;20391;-84
2022/07/06 07:59:03;;;;;;;4.00;1.05;;;19.80;81.40;;;18.58;64.96;101494.53;5048842;28;20049;-83
2022/07/06 08:01:32;;;;;;;6.25;1.02;;;19.80;81.10;;;18.64;64.79;101498.34;5042478;28;20497;-83
2022/07/06 08:04:00;;;;;;;6.38;1.40;;;19.80;80.70;;;18.90;64.91;101497.47;5043423;28;20754;-83
2022/07/06 08:06:27;;;;;;;4.80;1.00;;;19.90;81.20;;;19.11;62.99;101499.97;5063381;28;20132;-83
2022/07/06 08:08:55;;;;;;;6.65;1.00;;;19.90;80.70;;;19.25;63.79;101483.38;5038072;28;20492;-83
2022/07/06 08:11:23;;;;;;;7.43;1.20;;;20.00;81.20;;;19.28;64.90;101482.91;5052068;28;20116;-83
2022/07/06 08:13:50;;;;;;;5.65;1.17;;;20.00;82.10;;;19.18;64.91;101490.81;5046535;28;20052;-83
2022/07/06 08:16:18;;;;;;;4.50;0.98;;;20.00;82.00;;;19.04;65.30;101490.00;5046118;28;20080;-83
2022/07/06 08:18:45;;;;;;;9.32;1.40;;;20.10;81.70;;;18.85;64.66;101491.75;5044012;28;20049;-83
2022/07/06 08:21:12;;;;;;;5.13;1.10;;;20.10;81.30;;;18.66;64.01;101486.06;5042620;28;20037;-83
2022/07/06 08:23:40;;;;;;;2.88;1.00;;;20.10;80.00;;;18.82;66.26;101492.19;5048988;28;20516;-87
2022/07/06 08:26:09;;;;;;;6.28;1.15;;;20.10;81.70;;;18.89;63.01;101488.38;5050990;28;20059;-85
2022/07/06 08:28:36;;;;;;;3.33;1.10;;;20.10;79.00;;;18.97;62.65;101489.19;5045653;28;20088;-84
2022/07/06 08:31:03;;;;;;;4.70;1.25;;;20.10;79.90;;;19.29;65.41;101479.94;5048580;28;20037;-84
2022/07/06 08:33:31;;;;;;;3.60;1.00;;;20.20;82.00;;;19.49;60.73;101482.59;5042902;28;20044;-84
2022/07/06 08:35:58;;;;;;;5.63;1.00;;;20.20;78.40;;;19.45;57.78;101477.75;5052221;28;20119;-85
2022/07/06 08:38:26;;;;;;;5.40;1.13;;;20.20;76.50;;;19.13;57.89;101483.19;5047576;28;20041;-90
2022/07/06 08:40:54;;;;;;;2.78;0.90;;;20.20;75.60;;;18.81;59.13;101476.69;5050200;28;20032;-86
2022/07/06 08:43:23;;;;;;;4.47;0.93;;;20.20;75.60;;;18.63;61.61;101474.59;5049883;28;20044;-86
2022/07/06 08:45:54;;;;;;;3.50;1.02;;;20.20;76.70;;;18.41;61.74;101482.25;5049062;28;20068;-85
2022/07/06 08:48:24;;;;;;;4.32;0.90;;;20.20;76.90;;;18.36;63.68;101478.22;5038769;28;20069;-85
2022/07/06 08:50:52;;;;;;;4.73;1.20;;;20.10;77.80;;;18.44;60.53;101481.81;5047499;28;20497;-90
2022/07/06 08:53:21;;;;;;;3.47;0.80;;;20.10;75.90;;;18.64;60.93;101471.63;5044646;28;20288;-91
2022/07/06 08:55:50;;;;;;;3.15;0.88;;;20.10;76.50;;;19.06;61.36;101477.72;5057181;28;20083;-90
2022/07/06 08:58:17;;;;;;;7.35;1.30;;;20.20;77.40;;;19.44;63.13;101474.16;5043867;28;20413;-92
2022/07/06 09:00:46;;;;;;;9.27;1.77;;;20.30;79.70;;;19.46;60.34;101474.78;5045284;28;20065;-86
2022/07/06 09:03:14;;;;;;;3.72;1.55;;;20.30;78.50;;;19.37;58.85;101476.09;5050291;28;20029;-90
2022/07/06 09:05:45;;;;;;;4.05;1.40;;;20.30;76.80;;;19.15;60.11;101481.06;5049821;28;20159;-90
2022/07/06 09:08:13;;;;;;;;;;;20.30;77.10;;;18.98;60.33;101479.84;5048072;28;20119;-91
2022/07/06 09:10:40;;;;;;;6.28;1.20;;;20.30;76.70;;;18.81;60.77;101488.59;5044447;28;19931;-90
2022/07/06 09:13:09;;;;;;;4.78;1.50;;;20.30;76.40;;;18.72;60.29;101484.34;5039912;28;20129;-89
2022/07/06 09:15:39;;;;;;;4.72;1.20;;;20.20;76.00;;;18.59;58.44;101492.63;5048935;28;20476;-91
2022/07/06 09:18:08;;;;;;;3.03;1.08;;;20.20;74.30;;;18.50;58.93;101486.47;5046442;28;20544;-90
2022/07/06 09:20:36;;;;;;;5.10;1.10;;;20.20;74.70;;;18.49;60.35;101495.81;5043594;28;20053;-91
2022/07/06 09:23:06;;;;;;;3.38;1.10;;;20.20;75.30;;;18.59;60.49;101490.72;5041317;28;20053;-91
2022/07/06 09:25:34;;;;;;;6.20;1.40;;;20.20;75.70;;;18.70;62.19;101484.56;5047717;28;20052;-91
2022/07/06 09:28:02;;;;;;;4.50;1.30;;;20.20;77.70;;;18.75;60.50;101490.28;5054892;28;20042;-91
2022/07/06 09:30:30;;;;;;;3.58;1.42;;;20.20;76.20;;;18.75;60.67;101484.75;5045043;28;20111;-91
2022/07/06 09:32:59;;;;;;;6.13;1.38;;;20.20;76.20;;;18.70;59.55;101476.28;5045617;28;20044;-90
2022/07/06 09:35:30;;;;;;;3.92;1.27;;;20.20;75.50;;;18.85;60.81;101472.44;5056996;28;20793;-91
2022/07/06 09:38:03;;;;;;;3.70;1.10;;;20.20;76.60;;;18.93;59.78;101477.75;5040052;28;20513;-90
2022/07/06 09:40:33;;;;;;;4.68;1.00;;;20.20;75.20;;;18.88;59.43;101477.53;5050746;28;20048;-92
2022/07/06 09:43:15;;;;;;;6.03;1.42;;;20.20;75.80;;;18.94;61.34;101472.03;5045189;28;20125;-90
2022/07/06 09:45:44;;;;;;;5.13;1.30;;;20.20;76.40;;;19.00;59.84;101483.22;5045759;28;20659;-90
2022/07/06 09:48:14;;;;;;;3.95;1.25;;;20.30;76.40;;;19.13;60.67;101481.28;5040989;28;20076;-93
2022/07/06 09:50:45;;;;;;;5.33;1.73;;;20.30;76.90;;;19.19;60.72;101484.22;5046705;28;20149;-92
2022/07/06 09:53:14;;;;;;;7.47;1.98;;;20.30;77.40;;;19.20;61.59;101475.75;5050533;28;20594;-91
2022/07/06 09:55:46;;;;;;;4.50;1.58;;;20.30;77.70;;;19.34;61.98;101471.00;5040223;28;20118;-90
2022/07/06 09:58:14;;;;;;;4.07;1.50;;;20.40;78.60;;;19.63;63.17;101471.47;5039147;28;20049;-88
2022/07/06 10:00:42;;;;;;;5.00;1.45;;;20.50;80.40;;;19.91;60.73;101477.53;5040347;28;20053;-90
2022/07/06 10:05:39;;;;;;;6.85;1.80;;;20.60;76.70;;;19.95;58.28;101475.13;5059650;28;20616;-80
2022/07/06 10:08:10;;;;;;;4.85;1.80;;;20.60;76.00;;;19.92;58.79;101473.66;5070472;28;20500;-80
2022/07/06 10:10:39;;;;;;;6.32;1.88;;;20.60;77.30;;;19.72;58.73;101472.94;5069710;28;20046;-80
2022/07/06 10:13:09;;;;;;;3.58;1.30;;;20.60;76.40;;;19.62;54.70;101478.09;5062620;28;20420;-80
2022/07/06 10:15:41;;;;;;;4.57;1.48;;;20.60;73.60;;;19.62;56.35;101478.09;5044239;28;20041;-80
2022/07/06 10:18:11;;;;;;;5.47;1.50;;;20.60;73.90;;;19.71;56.50;101471.25;5032054;28;20052;-81
2022/07/06 10:20:40;;;;;;;3.90;1.60;;;20.70;73.80;;;19.73;56.47;101480.19;5019384;28;20053;-81
2022/07/06 10:23:10;;;;;;;4.03;1.45;;;20.70;74.40;;;19.67;56.66;101481.88;5041342;28;20136;-83
2022/07/06 10:25:37;;;;;;;3.28;1.35;;;20.70;74.80;;;19.62;55.98;101475.31;5037018;28;20045;-82